createdAt,value
2019-03-19T00:00:52.624Z,1016.67
2019-03-19T00:01:52.610Z,1016.70
2019-03-19T00:02:52.591Z,1016.73
2019-03-19T00:03:52.581Z,1016.75
2019-03-19T00:04:52.575Z,1016.79
2019-03-19T00:05:52.553Z,1016.74
2019-03-19T00:06:52.558Z,1016.78
2019-03-19T00:07:52.535Z,1016.78
2019-03-19T00:08:52.521Z,1016.78
2019-03-19T00:09:52.510Z,1016.78
2019-03-19T00:10:52.498Z,1016.70
2019-03-19T00:11:52.509Z,1016.75
2019-03-19T00:12:52.526Z,1016.72
2019-03-19T00:13:52.468Z,1016.69
2019-03-19T00:14:52.453Z,1016.70
2019-03-19T00:15:52.449Z,1016.69
2019-03-19T00:16:52.422Z,1016.72
2019-03-19T00:17:52.438Z,1016.66
2019-03-19T00:18:52.401Z,1016.73
2019-03-19T00:19:52.390Z,1016.73
2019-03-19T00:20:52.385Z,1016.73
2019-03-19T00:21:52.360Z,1016.72
2019-03-19T00:22:52.346Z,1016.73
2019-03-19T00:23:52.339Z,1016.72
2019-03-19T00:24:52.344Z,1016.73
2019-03-19T00:25:53.252Z,1016.75
2019-03-19T00:26:52.321Z,1016.77
2019-03-19T00:27:52.293Z,1016.78
2019-03-19T00:28:52.290Z,1016.80
2019-03-19T00:29:52.265Z,1016.81
2019-03-19T00:30:52.254Z,1016.80
2019-03-19T00:31:52.246Z,1016.84
2019-03-19T00:32:52.230Z,1016.86
2019-03-19T00:33:52.235Z,1016.82
2019-03-19T00:34:52.233Z,1016.83
2019-03-19T00:35:52.189Z,1016.81
2019-03-19T00:36:52.181Z,1016.84
2019-03-19T00:37:52.180Z,1016.85
2019-03-19T00:38:52.159Z,1016.81
2019-03-19T00:39:52.148Z,1016.81
2019-03-19T00:40:52.134Z,1016.80
2019-03-19T00:41:52.123Z,1016.77
2019-03-19T00:42:52.116Z,1016.76
2019-03-19T00:43:52.092Z,1016.75
2019-03-19T00:44:52.101Z,1016.76
2019-03-19T00:45:52.074Z,1016.78
2019-03-19T00:46:52.068Z,1016.80
2019-03-19T00:47:52.051Z,1016.83
2019-03-19T00:48:52.030Z,1016.81
2019-03-19T00:49:52.065Z,1016.94
2019-03-19T00:50:52.031Z,1016.90
2019-03-19T00:51:51.998Z,1016.95
2019-03-19T00:52:51.987Z,1016.94
2019-03-19T00:53:51.981Z,1016.94
2019-03-19T00:54:51.955Z,1016.92
2019-03-19T00:55:51.956Z,1016.96
2019-03-19T00:56:51.934Z,1016.90
2019-03-19T00:57:51.920Z,1016.94
2019-03-19T00:58:51.919Z,1016.93
2019-03-19T00:59:51.901Z,1016.95
2019-03-19T01:00:51.898Z,1016.94
2019-03-19T01:01:51.884Z,1016.97
2019-03-19T01:02:51.865Z,1016.99
2019-03-19T01:03:51.849Z,1016.99
2019-03-19T01:04:51.831Z,1016.96
2019-03-19T01:05:51.832Z,1016.97
2019-03-19T01:06:51.822Z,1016.94
2019-03-19T01:07:51.813Z,1016.95
2019-03-19T01:08:51.781Z,1016.96
2019-03-19T01:09:51.777Z,1016.98
2019-03-19T01:10:51.763Z,1017.01
2019-03-19T01:11:51.758Z,1017.06
2019-03-19T01:12:51.738Z,1017.11
2019-03-19T01:13:51.736Z,1017.13
2019-03-19T01:14:51.713Z,1017.16
2019-03-19T01:15:51.698Z,1017.16
2019-03-19T01:16:51.695Z,1017.19
2019-03-19T01:17:51.673Z,1017.15
2019-03-19T01:18:51.678Z,1017.16
2019-03-19T01:19:51.652Z,1017.19
2019-03-19T01:20:51.635Z,1017.15
2019-03-19T01:21:51.633Z,1017.15
2019-03-19T01:22:51.610Z,1017.14
2019-03-19T01:23:51.606Z,1017.15
2019-03-19T01:24:53.195Z,1017.14
2019-03-19T01:25:55.591Z,1017.13
2019-03-19T01:26:51.574Z,1017.11
2019-03-19T01:27:51.576Z,1017.17
2019-03-19T01:28:51.540Z,1017.11
2019-03-19T01:29:51.530Z,1017.13
2019-03-19T01:30:51.514Z,1017.13
2019-03-19T01:31:51.499Z,1017.13
2019-03-19T01:32:51.511Z,1017.12
2019-03-19T01:33:51.475Z,1017.17
2019-03-19T01:34:51.468Z,1017.20
2019-03-19T01:35:51.450Z,1017.19
2019-03-19T01:36:51.448Z,1017.21
2019-03-19T01:37:54.186Z,1017.18
2019-03-19T01:38:51.444Z,1017.20
2019-03-19T01:39:51.401Z,1017.18
2019-03-19T01:40:51.384Z,1017.17
2019-03-19T01:41:51.380Z,1017.18
2019-03-19T01:42:51.362Z,1017.17
2019-03-19T01:43:51.352Z,1017.18
2019-03-19T01:44:51.350Z,1017.17
2019-03-19T01:45:51.331Z,1017.19
2019-03-19T01:46:51.316Z,1017.19
2019-03-19T01:47:51.311Z,1017.23
2019-03-19T01:48:51.297Z,1017.21
2019-03-19T01:49:51.305Z,1017.23
2019-03-19T01:50:51.271Z,1017.22
2019-03-19T01:51:51.254Z,1017.25
2019-03-19T01:52:51.245Z,1017.20
2019-03-19T01:53:51.227Z,1017.21
2019-03-19T01:54:51.253Z,1017.20
2019-03-19T01:55:51.203Z,1017.16
2019-03-19T01:56:51.192Z,1017.17
2019-03-19T01:57:51.181Z,1017.21
2019-03-19T01:58:51.160Z,1017.21
2019-03-19T01:59:51.164Z,1017.17
2019-03-19T02:00:51.142Z,1017.18
2019-03-19T02:01:51.124Z,1017.19
2019-03-19T02:02:51.119Z,1017.19
2019-03-19T02:03:51.126Z,1017.18
2019-03-19T02:04:51.089Z,1017.20
2019-03-19T02:05:51.092Z,1017.18
2019-03-19T02:06:51.067Z,1017.21
2019-03-19T02:07:51.086Z,1017.20
2019-03-19T02:08:51.032Z,1017.20
2019-03-19T02:09:51.038Z,1017.24
2019-03-19T02:10:51.043Z,1017.26
2019-03-19T02:11:51.010Z,1017.26
2019-03-19T02:12:50.993Z,1017.30
2019-03-19T02:13:50.978Z,1017.30
2019-03-19T02:14:50.965Z,1017.30
2019-03-19T02:15:50.968Z,1017.30
2019-03-19T02:16:50.967Z,1017.29
2019-03-19T02:17:50.971Z,1017.31
2019-03-19T02:18:50.919Z,1017.33
2019-03-19T02:19:50.903Z,1017.33
2019-03-19T02:20:50.898Z,1017.36
2019-03-19T02:21:50.883Z,1017.30
2019-03-19T02:22:50.874Z,1017.28
2019-03-19T02:23:50.853Z,1017.30
2019-03-19T02:24:50.836Z,1017.32
2019-03-19T02:25:50.823Z,1017.32
2019-03-19T02:26:50.822Z,1017.35
2019-03-19T02:27:50.819Z,1017.32
2019-03-19T02:28:50.789Z,1017.33
2019-03-19T02:29:50.772Z,1017.34
2019-03-19T02:30:50.762Z,1017.36
2019-03-19T02:31:50.759Z,1017.43
2019-03-19T02:32:50.740Z,1017.43
2019-03-19T02:33:50.734Z,1017.47
2019-03-19T02:34:50.719Z,1017.53
2019-03-19T02:35:50.704Z,1017.56
2019-03-19T02:36:50.705Z,1017.55
2019-03-19T02:37:50.672Z,1017.54
2019-03-19T02:38:50.666Z,1017.56
2019-03-19T02:39:50.652Z,1017.58
2019-03-19T02:40:50.653Z,1017.55
2019-03-19T02:41:50.638Z,1017.56
2019-03-19T02:42:50.625Z,1017.57
2019-03-19T02:43:50.605Z,1017.57
2019-03-19T02:44:50.598Z,1017.54
2019-03-19T02:45:50.572Z,1017.55
2019-03-19T02:46:50.565Z,1017.55
2019-03-19T02:47:50.561Z,1017.56
2019-03-19T02:48:50.540Z,1017.61
2019-03-19T02:49:50.529Z,1017.59
2019-03-19T02:50:50.520Z,1017.61
2019-03-19T02:51:50.502Z,1017.63
2019-03-19T02:52:50.487Z,1017.64
2019-03-19T02:53:50.478Z,1017.66
2019-03-19T02:54:50.463Z,1017.67
2019-03-19T02:55:50.454Z,1017.71
2019-03-19T02:56:50.433Z,1017.73
2019-03-19T02:57:50.422Z,1017.70
2019-03-19T02:58:50.423Z,1017.75
2019-03-19T02:59:50.415Z,1017.75
2019-03-19T03:00:50.384Z,1017.71
2019-03-19T03:01:50.373Z,1017.70
2019-03-19T03:02:50.365Z,1017.71
2019-03-19T03:03:50.365Z,1017.69
2019-03-19T03:04:50.340Z,1017.70
2019-03-19T03:05:50.325Z,1017.64
2019-03-19T03:06:51.195Z,1017.69
2019-03-19T03:07:50.327Z,1017.70
2019-03-19T03:08:50.294Z,1017.75
2019-03-19T03:09:50.270Z,1017.78
2019-03-19T03:10:50.266Z,1017.84
2019-03-19T03:11:50.267Z,1017.89
2019-03-19T03:12:50.238Z,1017.90
2019-03-19T03:13:50.225Z,1017.88
2019-03-19T03:14:50.220Z,1017.90
2019-03-19T03:15:50.195Z,1017.89
2019-03-19T03:16:50.190Z,1017.91
2019-03-19T03:17:50.176Z,1017.92
2019-03-19T03:18:50.162Z,1017.95
2019-03-19T03:19:50.158Z,1017.91
2019-03-19T03:20:50.154Z,1017.86
2019-03-19T03:21:50.125Z,1017.87
2019-03-19T03:22:50.210Z,1017.88
2019-03-19T03:23:50.096Z,1017.87
2019-03-19T03:24:50.097Z,1017.92
2019-03-19T03:25:50.080Z,1017.88
2019-03-19T03:26:50.064Z,1017.92
2019-03-19T03:27:50.058Z,1017.84
2019-03-19T03:28:50.697Z,1017.88
2019-03-19T03:29:50.021Z,1017.90
2019-03-19T03:30:50.044Z,1017.92
2019-03-19T03:31:50.005Z,1017.93
2019-03-19T03:32:50.696Z,1017.91
2019-03-19T03:33:50.704Z,1017.93
2019-03-19T03:34:49.960Z,1017.94
2019-03-19T03:35:49.970Z,1017.96
2019-03-19T03:36:49.936Z,1017.95
2019-03-19T03:37:49.956Z,1017.92
2019-03-19T03:38:49.909Z,1017.93
2019-03-19T03:39:49.889Z,1017.94
2019-03-19T03:40:49.890Z,1017.92
2019-03-19T03:41:49.868Z,1017.90
2019-03-19T03:42:49.864Z,1017.89
2019-03-19T03:43:49.855Z,1017.90
2019-03-19T03:44:49.829Z,1017.90
2019-03-19T03:45:49.841Z,1017.86
2019-03-19T03:46:49.803Z,1017.88
2019-03-19T03:47:49.803Z,1017.88
2019-03-19T03:48:49.779Z,1017.92
2019-03-19T03:49:49.763Z,1017.93
2019-03-19T03:50:49.757Z,1017.94
2019-03-19T03:51:49.741Z,1017.95
2019-03-19T03:52:49.733Z,1017.95
2019-03-19T03:53:49.717Z,1017.97
2019-03-19T03:54:49.709Z,1017.98
2019-03-19T03:55:49.697Z,1018.00
2019-03-19T03:57:01.403Z,1018.01
2019-03-19T03:57:49.679Z,1018.02
2019-03-19T03:59:00.036Z,1018.02
2019-03-19T03:59:49.636Z,1018.02
2019-03-19T04:00:49.641Z,1018.04
2019-03-19T04:01:49.626Z,1018.04
2019-03-19T04:02:49.600Z,1018.06
2019-03-19T04:03:49.593Z,1018.07
2019-03-19T04:04:49.580Z,1018.09
2019-03-19T04:05:49.582Z,1018.12
2019-03-19T04:06:49.558Z,1018.14
2019-03-19T04:07:49.559Z,1018.15
2019-03-19T04:08:49.527Z,1018.18
2019-03-19T04:09:49.516Z,1018.17
2019-03-19T04:10:49.499Z,1018.20
2019-03-19T04:11:49.520Z,1018.24
2019-03-19T04:12:49.498Z,1018.25
2019-03-19T04:13:49.463Z,1018.26
2019-03-19T04:14:49.448Z,1018.29
2019-03-19T04:15:49.442Z,1018.28
2019-03-19T04:16:49.429Z,1018.30
2019-03-19T04:17:49.409Z,1018.28
2019-03-19T04:18:49.404Z,1018.31
2019-03-19T04:19:49.383Z,1018.36
2019-03-19T04:20:49.375Z,1018.38
2019-03-19T04:21:49.358Z,1018.38
2019-03-19T04:22:49.377Z,1018.37
2019-03-19T04:23:49.328Z,1018.46
2019-03-19T04:24:49.323Z,1018.46
2019-03-19T04:25:49.305Z,1018.39
2019-03-19T04:26:49.293Z,1018.40
2019-03-19T04:27:49.311Z,1018.41
2019-03-19T04:28:49.265Z,1018.42
2019-03-19T04:29:49.256Z,1018.43
2019-03-19T04:30:49.246Z,1018.47
2019-03-19T04:31:49.235Z,1018.48
2019-03-19T04:32:49.250Z,1018.48
2019-03-19T04:33:49.200Z,1018.43
2019-03-19T04:34:49.189Z,1018.44
2019-03-19T04:35:49.176Z,1018.44
2019-03-19T04:36:49.170Z,1018.39
2019-03-19T04:37:49.714Z,1018.40
2019-03-19T04:38:49.138Z,1018.41
2019-03-19T04:39:49.136Z,1018.44
2019-03-19T04:40:49.706Z,1018.45
2019-03-19T04:41:49.102Z,1018.50
2019-03-19T04:42:49.084Z,1018.53
2019-03-19T04:43:49.082Z,1018.52
2019-03-19T04:44:49.058Z,1018.58
2019-03-19T04:45:49.047Z,1018.57
2019-03-19T04:46:49.034Z,1018.61
2019-03-19T04:47:49.046Z,1018.59
2019-03-19T04:48:49.020Z,1018.59
2019-03-19T04:49:48.991Z,1018.58
2019-03-19T04:50:48.988Z,1018.58
2019-03-19T04:51:48.982Z,1018.57
2019-03-19T04:52:48.959Z,1018.57
2019-03-19T04:53:48.970Z,1018.57
2019-03-19T04:54:48.929Z,1018.57
2019-03-19T04:55:48.921Z,1018.56
2019-03-19T04:56:48.906Z,1018.60
2019-03-19T04:57:48.894Z,1018.61
2019-03-19T04:58:48.893Z,1018.61
2019-03-19T04:59:48.866Z,1018.60
2019-03-19T05:00:48.861Z,1018.62
2019-03-19T05:01:48.842Z,1018.63
2019-03-19T05:02:48.845Z,1018.68
2019-03-19T05:03:48.816Z,1018.64
2019-03-19T05:04:48.810Z,1018.70
2019-03-19T05:05:48.789Z,1018.71
2019-03-19T05:06:48.777Z,1018.68
2019-03-19T05:07:48.766Z,1018.72
2019-03-19T05:08:48.753Z,1018.71
2019-03-19T05:09:48.738Z,1018.70
2019-03-19T05:10:48.725Z,1018.68
2019-03-19T05:11:48.710Z,1018.65
2019-03-19T05:12:48.711Z,1018.64
2019-03-19T05:13:48.685Z,1018.61
2019-03-19T05:14:48.691Z,1018.58
2019-03-19T05:15:48.669Z,1018.58
2019-03-19T05:16:48.665Z,1018.58
2019-03-19T05:17:48.641Z,1018.57
2019-03-19T05:18:48.617Z,1018.59
2019-03-19T05:19:48.631Z,1018.63
2019-03-19T05:20:48.625Z,1018.69
2019-03-19T05:21:48.588Z,1018.65
2019-03-19T05:22:48.572Z,1018.69
2019-03-19T05:23:48.554Z,1018.75
2019-03-19T05:24:48.556Z,1018.76
2019-03-19T05:25:48.539Z,1018.80
2019-03-19T05:26:48.516Z,1018.83
2019-03-19T05:27:48.509Z,1018.86
2019-03-19T05:28:48.493Z,1018.88
2019-03-19T05:29:48.476Z,1018.84
2019-03-19T05:30:48.466Z,1018.89
2019-03-19T05:31:48.470Z,1018.90
2019-03-19T05:32:56.199Z,1018.85
2019-03-19T05:34:49.630Z,1018.86
2019-03-19T05:35:41.912Z,1018.86
2019-03-19T05:37:45.876Z,1018.89
2019-03-19T05:38:35.342Z,1018.89
2019-03-19T05:39:35.343Z,1018.92
2019-03-19T05:40:35.296Z,1018.93
2019-03-19T05:41:35.284Z,1018.92
2019-03-19T05:42:35.267Z,1018.91
2019-03-19T05:43:35.288Z,1018.92
2019-03-19T05:44:35.250Z,1018.93
2019-03-19T05:45:35.238Z,1018.90
2019-03-19T05:46:35.220Z,1018.93
2019-03-19T05:47:38.202Z,1018.94
2019-03-19T05:48:35.221Z,1018.96
2019-03-19T05:49:35.186Z,1018.96
2019-03-19T05:50:35.174Z,1018.98
2019-03-19T05:51:35.154Z,1019.01
2019-03-19T05:52:35.142Z,1018.98
2019-03-19T05:53:35.121Z,1019.02
2019-03-19T05:54:35.109Z,1019.01
2019-03-19T05:55:35.126Z,1018.99
2019-03-19T05:56:35.092Z,1019.02
2019-03-19T05:57:35.071Z,1019.01
2019-03-19T05:58:35.074Z,1019.03
2019-03-19T05:59:35.055Z,1019.03
2019-03-19T06:00:35.035Z,1019.09
2019-03-19T06:01:35.022Z,1019.15
2019-03-19T06:02:35.047Z,1019.14
2019-03-19T06:03:34.997Z,1019.21
2019-03-19T06:04:35.001Z,1019.25
2019-03-19T06:05:34.983Z,1019.22
2019-03-19T06:06:34.957Z,1019.23
2019-03-19T06:07:34.943Z,1019.20
2019-03-19T06:08:34.924Z,1019.21
2019-03-19T06:09:34.931Z,1019.22
2019-03-19T06:10:34.903Z,1019.21
2019-03-19T06:11:34.892Z,1019.21
2019-03-19T06:12:34.886Z,1019.23
2019-03-19T06:13:34.877Z,1019.22
2019-03-19T06:14:34.851Z,1019.26
2019-03-19T06:15:34.843Z,1019.29
2019-03-19T06:16:34.826Z,1019.33
2019-03-19T06:17:34.818Z,1019.33
2019-03-19T06:18:35.626Z,1019.34
2019-03-19T06:19:34.793Z,1019.34
2019-03-19T06:20:34.777Z,1019.35
2019-03-19T06:21:34.765Z,1019.37
2019-03-19T06:22:34.785Z,1019.39
2019-03-19T06:23:34.741Z,1019.44
2019-03-19T06:24:34.730Z,1019.48
2019-03-19T06:25:34.727Z,1019.50
2019-03-19T06:26:34.698Z,1019.49
2019-03-19T06:27:34.702Z,1019.53
2019-03-19T06:28:35.672Z,1019.56
2019-03-19T06:29:34.675Z,1019.59
2019-03-19T06:30:34.653Z,1019.67
2019-03-19T06:31:34.648Z,1019.69
2019-03-19T06:32:34.630Z,1019.68
2019-03-19T06:33:34.616Z,1019.63
2019-03-19T06:34:34.607Z,1019.68
2019-03-19T06:35:34.592Z,1019.70
2019-03-19T06:36:34.576Z,1019.71
2019-03-19T06:37:34.567Z,1019.76
2019-03-19T06:38:34.551Z,1019.79
2019-03-19T06:39:34.540Z,1019.81
2019-03-19T06:40:34.532Z,1019.79
2019-03-19T06:41:34.525Z,1019.79
2019-03-19T06:42:35.333Z,1019.82
2019-03-19T06:43:34.497Z,1019.77
2019-03-19T06:44:34.480Z,1019.83
2019-03-19T06:45:34.481Z,1019.75
2019-03-19T06:46:34.491Z,1019.82
2019-03-19T06:47:34.477Z,1019.83
2019-03-19T06:48:34.439Z,1019.79
2019-03-19T06:49:34.437Z,1019.83
2019-03-19T06:50:44.436Z,1019.83
2019-03-19T06:51:34.468Z,1019.84
2019-03-19T06:52:34.403Z,1019.87
2019-03-19T06:53:34.375Z,1019.81
2019-03-19T06:54:34.357Z,1019.86
2019-03-19T06:55:34.349Z,1019.92
2019-03-19T06:56:34.345Z,1019.88
2019-03-19T06:57:39.137Z,1019.85
2019-03-19T06:58:35.852Z,1019.87
2019-03-19T06:59:34.315Z,1019.81
2019-03-19T07:00:34.300Z,1019.83
2019-03-19T07:01:34.279Z,1019.85
2019-03-19T07:02:34.265Z,1019.80
2019-03-19T07:03:34.255Z,1019.75
2019-03-19T07:04:34.258Z,1019.76
2019-03-19T07:05:34.234Z,1019.81
2019-03-19T07:06:34.224Z,1019.81
2019-03-19T07:07:34.227Z,1019.81
2019-03-19T07:08:34.221Z,1019.83
2019-03-19T07:09:34.196Z,1019.89
2019-03-19T07:10:34.174Z,1019.91
2019-03-19T07:11:34.198Z,1019.93
2019-03-19T07:12:34.153Z,1019.96
2019-03-19T07:13:34.144Z,1019.95
2019-03-19T07:14:34.132Z,1019.92
2019-03-19T07:15:34.127Z,1019.95
2019-03-19T07:16:34.113Z,1019.95
2019-03-19T07:17:34.099Z,1019.97
2019-03-19T07:18:34.100Z,1019.97
2019-03-19T07:19:34.077Z,1019.96
2019-03-19T07:20:34.062Z,1019.98
2019-03-19T07:21:34.057Z,1020.03
2019-03-19T07:22:34.043Z,1020.04
2019-03-19T07:23:49.962Z,1020.07
2019-03-19T07:24:34.037Z,1020.13
2019-03-19T07:25:34.015Z,1020.13
2019-03-19T07:26:34.316Z,1020.13
2019-03-19T07:27:33.987Z,1020.18
2019-03-19T07:28:33.987Z,1020.19
2019-03-19T07:29:34.868Z,1020.26
2019-03-19T07:30:33.968Z,1020.22
2019-03-19T07:31:33.942Z,1020.25
2019-03-19T07:32:33.938Z,1020.22
2019-03-19T07:33:33.923Z,1020.27
2019-03-19T07:34:33.959Z,1020.26
2019-03-19T07:35:33.924Z,1020.27
2019-03-19T07:36:33.925Z,1020.31
2019-03-19T07:37:33.880Z,1020.32
2019-03-19T07:38:33.880Z,1020.35
2019-03-19T07:39:33.897Z,1020.31
2019-03-19T07:40:33.849Z,1020.34
2019-03-19T07:41:33.845Z,1020.33
2019-03-19T07:42:33.856Z,1020.34
2019-03-19T07:43:33.814Z,1020.37
2019-03-19T07:44:33.818Z,1020.38
2019-03-19T07:45:33.798Z,1020.37
2019-03-19T07:46:33.841Z,1020.37
2019-03-19T07:47:33.778Z,1020.39
2019-03-19T07:48:33.768Z,1020.38
2019-03-19T07:49:33.757Z,1020.39
2019-03-19T07:50:33.752Z,1020.45
2019-03-19T07:51:33.736Z,1020.43
2019-03-19T07:52:33.729Z,1020.46
2019-03-19T07:53:33.723Z,1020.49
2019-03-19T07:54:33.706Z,1020.49
2019-03-19T07:55:33.694Z,1020.47
2019-03-19T07:56:33.683Z,1020.48
2019-03-19T07:57:33.670Z,1020.48
2019-03-19T07:58:44.762Z,1020.50
2019-03-19T07:59:33.656Z,1020.48
2019-03-19T08:00:33.641Z,1020.52
2019-03-19T08:01:33.627Z,1020.52
2019-03-19T08:02:33.621Z,1020.46
2019-03-19T08:03:33.605Z,1020.48
2019-03-19T08:04:33.597Z,1020.46
2019-03-19T08:05:33.658Z,1020.48
2019-03-19T08:06:33.609Z,1020.49
2019-03-19T08:07:33.565Z,1020.52
2019-03-19T08:08:33.561Z,1020.52
2019-03-19T08:09:33.591Z,1020.59
2019-03-19T08:10:33.533Z,1020.62
2019-03-19T08:11:33.530Z,1020.65
2019-03-19T08:12:33.780Z,1020.70
2019-03-19T08:13:33.508Z,1020.74
2019-03-19T08:14:34.382Z,1020.72
2019-03-19T08:15:33.546Z,1020.76
2019-03-19T08:16:33.478Z,1020.75
2019-03-19T08:17:33.468Z,1020.75
2019-03-19T08:18:35.980Z,1020.72
2019-03-19T08:19:33.450Z,1020.75
2019-03-19T08:20:33.444Z,1020.78
2019-03-19T08:21:33.424Z,1020.78
2019-03-19T08:22:33.417Z,1020.78
2019-03-19T08:23:33.408Z,1020.83
2019-03-19T08:24:33.400Z,1020.83
2019-03-19T08:25:41.904Z,1020.84
2019-03-19T08:30:55.255Z,1020.86
2019-03-19T08:31:40.693Z,1020.85
2019-03-19T08:33:39.205Z,1020.92
2019-03-19T08:34:36.293Z,1020.89
2019-03-19T08:36:49.760Z,1020.94
2019-03-19T08:37:28.257Z,1020.88
2019-03-19T08:39:23.890Z,1020.89
2019-03-19T08:40:29.478Z,1020.91
2019-03-19T08:42:25.757Z,1020.92
2019-03-19T08:43:16.683Z,1020.99
2019-03-19T08:44:15.158Z,1020.97
2019-03-19T08:45:15.152Z,1020.95
2019-03-19T08:46:15.148Z,1020.97
2019-03-19T08:47:15.135Z,1020.99
2019-03-19T08:48:15.122Z,1021.05
2019-03-19T08:49:15.130Z,1021.04
2019-03-19T08:50:15.107Z,1021.03
2019-03-19T08:51:15.100Z,1021.03
2019-03-19T08:52:15.094Z,1021.11
2019-03-19T08:53:15.087Z,1021.11
2019-03-19T08:54:15.076Z,1021.12
2019-03-19T08:55:15.073Z,1021.13
2019-03-19T08:56:15.057Z,1021.14
2019-03-19T08:57:15.051Z,1021.13
2019-03-19T08:58:15.050Z,1021.14
2019-03-19T08:59:15.060Z,1021.14
2019-03-19T09:00:15.035Z,1021.14
2019-03-19T09:01:15.025Z,1021.18
2019-03-19T09:02:15.049Z,1021.17
2019-03-19T09:03:15.028Z,1021.19
2019-03-19T09:04:15.013Z,1021.24
2019-03-19T09:05:15.009Z,1021.18
2019-03-19T09:06:15.001Z,1021.21
2019-03-19T09:07:15.002Z,1021.21
2019-03-19T09:08:14.992Z,1021.26
2019-03-19T09:09:14.987Z,1021.27
2019-03-19T09:10:14.979Z,1021.28
2019-03-19T09:11:14.982Z,1021.31
2019-03-19T09:12:14.977Z,1021.28
2019-03-19T09:13:14.974Z,1021.25
2019-03-19T09:14:14.976Z,1021.25
2019-03-19T09:15:14.968Z,1021.25
2019-03-19T09:16:14.968Z,1021.23
2019-03-19T09:17:14.960Z,1021.23
2019-03-19T09:18:16.103Z,1021.20
2019-03-19T09:19:14.956Z,1021.25
2019-03-19T09:20:14.959Z,1021.26
2019-03-19T09:21:14.948Z,1021.24
2019-03-19T09:22:15.220Z,1021.25
2019-03-19T09:23:14.951Z,1021.28
2019-03-19T09:24:14.955Z,1021.30
2019-03-19T09:25:14.949Z,1021.32
2019-03-19T09:26:14.946Z,1021.27
2019-03-19T09:27:14.945Z,1021.27
2019-03-19T09:28:14.938Z,1021.28
2019-03-19T09:29:17.016Z,1021.31
2019-03-19T09:30:14.939Z,1021.27
2019-03-19T09:31:14.951Z,1021.26
2019-03-19T09:32:14.935Z,1021.26
2019-03-19T09:33:14.942Z,1021.26
2019-03-19T09:34:14.943Z,1021.27
2019-03-19T09:35:14.944Z,1021.19
2019-03-19T09:36:14.943Z,1021.23
2019-03-19T09:37:14.943Z,1021.21
2019-03-19T09:38:14.938Z,1021.25
2019-03-19T09:39:14.937Z,1021.23
2019-03-19T09:40:14.935Z,1021.26
2019-03-19T09:41:14.934Z,1021.30
2019-03-19T09:42:14.931Z,1021.30
2019-03-19T09:43:14.939Z,1021.18
2019-03-19T09:44:14.941Z,1021.15
2019-03-19T09:45:14.926Z,1021.09
2019-03-19T09:46:14.929Z,1021.13
2019-03-19T09:47:14.929Z,1021.15
2019-03-19T09:48:14.933Z,1021.10
2019-03-19T09:49:14.933Z,1021.16
2019-03-19T09:50:14.975Z,1021.16
2019-03-19T09:51:14.920Z,1021.21
2019-03-19T09:52:14.921Z,1021.21
2019-03-19T09:53:14.918Z,1021.25
2019-03-19T09:54:14.909Z,1021.17
2019-03-19T09:55:14.901Z,1021.20
2019-03-19T09:56:14.905Z,1021.25
2019-03-19T09:57:14.917Z,1021.29
2019-03-19T09:58:14.897Z,1021.28
2019-03-19T09:59:14.915Z,1021.31
2019-03-19T10:00:14.888Z,1021.30
2019-03-19T10:01:14.890Z,1021.30
2019-03-19T10:02:14.888Z,1021.33
2019-03-19T10:03:14.885Z,1021.29
2019-03-19T10:04:14.884Z,1021.34
2019-03-19T10:05:14.889Z,1021.31
2019-03-19T10:06:14.876Z,1021.32
2019-03-19T10:07:14.870Z,1021.33
2019-03-19T10:08:14.871Z,1021.33
2019-03-19T10:09:14.871Z,1021.33
2019-03-19T10:10:14.875Z,1021.30
2019-03-19T10:11:14.851Z,1021.34
2019-03-19T10:12:14.891Z,1021.38
2019-03-19T10:13:15.148Z,1021.41
2019-03-19T10:14:15.741Z,1021.36
2019-03-19T10:15:14.855Z,1021.44
2019-03-19T10:16:14.839Z,1021.34
2019-03-19T10:17:14.824Z,1021.38
2019-03-19T10:18:14.819Z,1021.42
2019-03-19T10:19:14.817Z,1021.43
2019-03-19T10:20:14.807Z,1021.44
2019-03-19T10:21:14.803Z,1021.41
2019-03-19T10:22:15.304Z,1021.44
2019-03-19T10:23:14.796Z,1021.45
2019-03-19T10:24:14.791Z,1021.40
2019-03-19T10:25:14.796Z,1021.43
2019-03-19T10:26:14.786Z,1021.41
2019-03-19T10:27:14.785Z,1021.38
2019-03-19T10:28:14.783Z,1021.33
2019-03-19T10:29:14.767Z,1021.38
2019-03-19T10:30:14.770Z,1021.38
2019-03-19T10:31:14.756Z,1021.40
2019-03-19T10:32:14.759Z,1021.39
2019-03-19T10:33:15.977Z,1021.38
2019-03-19T10:34:14.753Z,1021.40
2019-03-19T10:35:14.738Z,1021.45
2019-03-19T10:36:14.739Z,1021.47
2019-03-19T10:37:14.742Z,1021.47
2019-03-19T10:38:14.737Z,1021.44
2019-03-19T10:39:14.740Z,1021.37
2019-03-19T10:40:14.732Z,1021.41
2019-03-19T10:41:14.732Z,1021.41
2019-03-19T10:42:14.728Z,1021.47
2019-03-19T10:43:14.739Z,1021.48
2019-03-19T10:44:14.744Z,1021.53
2019-03-19T10:45:14.744Z,1021.57
2019-03-19T10:46:14.935Z,1021.56
2019-03-19T10:47:14.729Z,1021.59
2019-03-19T10:48:14.719Z,1021.60
2019-03-19T10:49:14.721Z,1021.67
2019-03-19T10:50:14.713Z,1021.63
2019-03-19T10:51:14.714Z,1021.67
2019-03-19T10:52:14.719Z,1021.67
2019-03-19T10:53:14.714Z,1021.72
2019-03-19T10:54:14.721Z,1021.72
2019-03-19T10:55:14.711Z,1021.70
2019-03-19T10:56:14.718Z,1021.70
2019-03-19T10:57:14.716Z,1021.72
2019-03-19T10:58:14.707Z,1021.70
2019-03-19T10:59:14.705Z,1021.70
2019-03-19T11:00:14.712Z,1021.68
2019-03-19T11:01:14.727Z,1021.68
2019-03-19T11:02:14.786Z,1021.66
2019-03-19T11:03:14.724Z,1021.69
2019-03-19T11:04:14.724Z,1021.73
2019-03-19T11:05:14.713Z,1021.77
2019-03-19T11:06:14.730Z,1021.75
2019-03-19T11:07:15.390Z,1021.77
2019-03-19T11:08:14.723Z,1021.76
2019-03-19T11:09:14.719Z,1021.75
2019-03-19T11:10:14.723Z,1021.78
2019-03-19T11:11:14.749Z,1021.76
2019-03-19T11:12:14.757Z,1021.83
2019-03-19T11:13:14.727Z,1021.79
2019-03-19T11:14:14.738Z,1021.74
2019-03-19T11:15:14.733Z,1021.79
2019-03-19T11:16:14.743Z,1021.81
2019-03-19T11:17:14.743Z,1021.83
2019-03-19T11:18:14.738Z,1021.84
2019-03-19T11:19:14.739Z,1021.82
2019-03-19T11:20:14.738Z,1021.79
2019-03-19T11:21:14.746Z,1021.80
2019-03-19T11:22:14.743Z,1021.82
2019-03-19T11:23:14.743Z,1021.75
2019-03-19T11:24:14.795Z,1021.74
2019-03-19T11:25:14.749Z,1021.76
2019-03-19T11:26:15.294Z,1021.74
2019-03-19T11:27:14.754Z,1021.73
2019-03-19T11:28:14.747Z,1021.68
2019-03-19T11:29:14.748Z,1021.70
2019-03-19T11:30:14.781Z,1021.72
2019-03-19T11:31:14.755Z,1021.78
2019-03-19T11:32:14.744Z,1021.70
2019-03-19T11:33:14.754Z,1021.78
2019-03-19T11:34:14.749Z,1021.68
2019-03-19T11:35:14.755Z,1021.67
2019-03-19T11:36:14.760Z,1021.73
2019-03-19T11:37:14.761Z,1021.72
2019-03-19T11:38:14.759Z,1021.69
2019-03-19T11:39:14.749Z,1021.65
2019-03-19T11:40:14.753Z,1021.68
2019-03-19T11:41:14.757Z,1021.71
2019-03-19T11:42:14.752Z,1021.73
2019-03-19T11:43:14.763Z,1021.75
2019-03-19T11:44:14.748Z,1021.72
2019-03-19T11:45:14.755Z,1021.75
2019-03-19T11:46:14.759Z,1021.73
2019-03-19T11:47:14.755Z,1021.77
2019-03-19T11:48:14.756Z,1021.72
2019-03-19T11:49:14.756Z,1021.79
2019-03-19T11:50:14.760Z,1021.77
2019-03-19T11:51:14.769Z,1021.74
2019-03-19T11:52:14.766Z,1021.73
2019-03-19T11:53:14.765Z,1021.74
2019-03-19T11:54:14.769Z,1021.70
2019-03-19T11:55:14.781Z,1021.71
2019-03-19T11:56:14.773Z,1021.73
2019-03-19T11:57:14.806Z,1021.71
2019-03-19T11:58:14.769Z,1021.78
2019-03-19T11:59:14.803Z,1021.82
2019-03-19T12:00:14.774Z,1021.82
2019-03-19T12:01:14.760Z,1021.82
2019-03-19T12:02:25.381Z,1021.80
2019-03-19T12:03:16.304Z,1021.79
2019-03-19T12:04:14.770Z,1021.74
2019-03-19T12:05:14.781Z,1021.72
2019-03-19T12:06:14.788Z,1021.70
2019-03-19T12:07:14.776Z,1021.73
2019-03-19T12:08:14.767Z,1021.73
2019-03-19T12:09:14.772Z,1021.75
2019-03-19T12:10:14.774Z,1021.75
2019-03-19T12:11:14.776Z,1021.75
2019-03-19T12:12:14.785Z,1021.83
2019-03-19T12:13:14.781Z,1021.81
2019-03-19T12:14:14.814Z,1021.85
2019-03-19T12:15:14.839Z,1021.81